createdAt,value
2022-10-30T00:01:06.477Z,60
2022-10-30T00:06:46.940Z,72
2022-10-30T00:12:26.919Z,60
2022-10-30T00:18:07.148Z,60
2022-10-30T00:23:47.311Z,64
2022-10-30T00:29:27.273Z,64
2022-10-30T00:35:07.470Z,72
2022-10-30T00:40:47.687Z,70
2022-10-30T00:46:27.745Z,64
2022-10-30T00:52:07.912Z,66
2022-10-30T00:57:47.747Z,72
2022-10-30T01:03:27.862Z,60
2022-10-30T01:09:08.612Z,64
2022-10-30T01:14:49.123Z,72
2022-10-30T01:20:29.093Z,66
2022-10-30T01:26:09.498Z,60
2022-10-30T01:31:49.505Z,60
2022-10-30T01:37:29.566Z,62
2022-10-30T01:43:09.914Z,60
2022-10-30T01:48:50.105Z,78
2022-10-30T02:00:01.323Z,70
2022-10-30T02:05:41.629Z,76
2022-10-30T02:11:21.653Z,72
2022-10-30T02:17:01.826Z,82
2022-10-30T02:22:42.584Z,66
2022-10-30T02:28:22.764Z,70
2022-10-30T02:34:03.040Z,58
2022-10-30T02:39:43.084Z,70
2022-10-30T02:45:23.087Z,66
2022-10-30T02:51:03.262Z,62
2022-10-30T02:56:43.423Z,76
2022-10-30T03:02:24.047Z,72
2022-10-30T03:08:04.361Z,70
2022-10-30T03:13:44.562Z,70
2022-10-30T03:19:24.370Z,62
2022-10-30T03:25:07.491Z,50
2022-10-30T03:30:47.606Z,56
2022-10-30T03:36:27.807Z,72
2022-10-30T03:42:07.959Z,78
2022-10-30T03:47:47.942Z,62
2022-10-30T03:53:27.715Z,64
2022-10-30T03:59:07.916Z,72
2022-10-30T04:04:50.241Z,60
2022-10-30T04:10:30.199Z,74
2022-10-30T04:16:10.345Z,64
2022-10-30T04:22:13.492Z,62
2022-10-30T04:27:53.847Z,60
2022-10-30T04:33:33.956Z,66
2022-10-30T04:39:14.108Z,60
2022-10-30T04:44:53.977Z,60
2022-10-30T04:50:34.120Z,60
2022-10-30T04:56:14.147Z,60
2022-10-30T05:01:55.231Z,72
2022-10-30T05:07:35.785Z,76
2022-10-30T05:13:16.006Z,62
2022-10-30T05:18:56.017Z,70
2022-10-30T05:24:38.689Z,72
2022-10-30T05:30:19.361Z,76
2022-10-30T05:35:59.479Z,64
2022-10-30T05:41:39.748Z,60
2022-10-30T05:47:19.711Z,66
2022-10-30T05:52:59.898Z,64
2022-10-30T05:58:40.169Z,74
2022-10-30T06:04:20.371Z,72
2022-10-30T06:10:00.184Z,74
2022-10-30T06:15:40.199Z,76
2022-10-30T06:21:20.268Z,70
2022-10-30T06:27:00.392Z,64
2022-10-30T06:32:40.584Z,70
2022-10-30T06:38:20.695Z,68
2022-10-30T06:44:00.745Z,72
2022-10-30T06:49:40.887Z,66
2022-10-30T06:55:21.083Z,78
2022-10-30T07:01:02.087Z,62
2022-10-30T07:06:42.761Z,68
2022-10-30T07:12:22.956Z,64
2022-10-30T07:18:04.675Z,60
2022-10-30T07:23:44.879Z,72
2022-10-30T07:29:24.929Z,64
2022-10-30T07:35:05.092Z,74
2022-10-30T07:40:54.452Z,72
2022-10-30T07:46:35.084Z,64
2022-10-30T07:52:31.917Z,70
2022-10-30T07:58:12.118Z,76
2022-10-30T08:03:52.502Z,72
2022-10-30T08:09:32.478Z,60
2022-10-30T08:15:15.693Z,78
2022-10-30T08:20:56.004Z,70
2022-10-30T08:26:36.696Z,76
2022-10-30T08:32:16.955Z,76
2022-10-30T08:38:00.805Z,86
2022-10-30T08:43:42.066Z,70
2022-10-30T08:49:22.442Z,78
2022-10-30T08:55:02.430Z,80
2022-10-30T09:00:42.853Z,128
2022-10-30T09:06:25.451Z,80
2022-10-30T09:12:06.086Z,34
2022-10-30T09:17:46.280Z,24
2022-10-30T09:23:26.185Z,22
2022-10-30T09:29:05.784Z,16
2022-10-30T09:34:46.118Z,26
2022-10-30T09:40:26.183Z,28
2022-10-30T09:46:07.891Z,20
2022-10-30T09:51:48.249Z,24
2022-10-30T09:57:31.067Z,16
2022-10-30T10:03:17.914Z,20
2022-10-30T10:14:00.615Z,30
2022-10-30T10:19:41.513Z,16
2022-10-30T10:25:21.833Z,22
2022-10-30T10:31:03.916Z,12
2022-10-30T10:36:44.768Z,8
2022-10-30T10:42:24.872Z,12
2022-10-30T10:48:18.242Z,4
2022-10-30T10:53:58.526Z,34
2022-10-30T10:59:38.191Z,20
2022-10-30T11:05:17.943Z,40
2022-10-30T11:10:58.572Z,4
2022-10-30T11:16:41.333Z,12
2022-10-30T11:22:21.045Z,18
2022-10-30T11:28:01.969Z,38
2022-10-30T11:33:41.955Z,24
2022-10-30T11:39:22.564Z,24
2022-10-30T11:45:06.141Z,96
2022-10-30T11:50:46.291Z,14
2022-10-30T11:56:26.777Z,42
2022-10-30T12:02:08.645Z,20
2022-10-30T12:07:54.203Z,34
2022-10-30T12:13:34.168Z,20
2022-10-30T12:19:14.467Z,26
2022-10-30T12:24:59.193Z,22
2022-10-30T12:30:39.080Z,20
2022-10-30T12:36:19.523Z,30
2022-10-30T12:42:08.281Z,52
2022-10-30T12:47:51.669Z,60
2022-10-30T12:53:34.595Z,24
2022-10-30T12:59:17.295Z,28
2022-10-30T13:04:59.774Z,24
2022-10-30T13:10:41.074Z,18
2022-10-30T13:16:21.091Z,14
2022-10-30T13:22:01.283Z,14
2022-10-30T13:27:41.504Z,18
2022-10-30T13:33:21.472Z,30
2022-10-30T13:39:04.049Z,20
2022-10-30T13:44:44.443Z,24
2022-10-30T13:50:24.431Z,24
2022-10-30T13:56:06.850Z,30
2022-10-30T14:01:50.436Z,60
2022-10-30T14:07:34.258Z,24
2022-10-30T14:13:14.497Z,68
2022-10-30T14:18:54.748Z,40
2022-10-30T14:24:34.786Z,80
2022-10-30T14:30:15.359Z,76
2022-10-30T14:35:55.512Z,80
2022-10-30T14:41:35.557Z,74
2022-10-30T14:47:16.045Z,72
2022-10-30T14:52:58.182Z,84
2022-10-30T14:58:39.025Z,78
2022-10-30T15:04:19.364Z,76
2022-10-30T15:09:59.241Z,78
2022-10-30T15:15:38.937Z,80
2022-10-30T15:21:18.914Z,72
2022-10-30T15:27:01.567Z,80
2022-10-30T15:32:41.479Z,74
2022-10-30T15:38:21.490Z,74
2022-10-30T15:44:01.474Z,72
2022-10-30T15:49:41.336Z,78
2022-10-30T15:55:21.304Z,70
2022-10-30T16:01:01.821Z,72
2022-10-30T16:06:42.501Z,80
2022-10-30T16:12:22.635Z,70
2022-10-30T16:18:04.977Z,70
2022-10-30T16:23:45.154Z,68
2022-10-30T16:29:25.479Z,72
2022-10-30T16:35:05.547Z,70
2022-10-30T16:40:48.133Z,76
2022-10-30T16:46:28.347Z,72
2022-10-30T16:52:08.383Z,80
2022-10-30T16:57:51.852Z,62
2022-10-30T17:03:31.979Z,66
2022-10-30T17:09:11.819Z,76
2022-10-30T17:14:51.784Z,64
2022-10-30T17:20:32.183Z,70
2022-10-30T17:26:12.407Z,66
2022-10-30T17:31:52.356Z,66
2022-10-30T17:37:32.700Z,78
2022-10-30T17:43:12.940Z,66
2022-10-30T17:48:53.098Z,64
2022-10-30T17:54:33.127Z,72
2022-10-30T18:00:13.617Z,76
2022-10-30T18:05:53.857Z,78
2022-10-30T18:11:34.066Z,66
2022-10-30T18:17:22.581Z,70
2022-10-30T18:23:55.849Z,76
2022-10-30T18:29:39.454Z,66
2022-10-30T18:35:24.511Z,66
2022-10-30T18:41:10.532Z,76
2022-10-30T18:46:50.546Z,66
2022-10-30T18:52:30.754Z,64
2022-10-30T18:58:22.560Z,66
2022-10-30T19:04:11.581Z,60
2022-10-30T19:10:36.577Z,72
2022-10-30T19:16:19.957Z,66
2022-10-30T19:22:00.017Z,68
2022-10-30T19:27:43.823Z,64
2022-10-30T19:33:31.015Z,76
2022-10-30T19:39:30.076Z,72
2022-10-30T19:45:10.247Z,62
2022-10-30T19:50:50.270Z,60
2022-10-30T19:56:42.488Z,68
2022-10-30T20:02:26.226Z,64
2022-10-30T20:08:15.110Z,66
2022-10-30T20:14:38.239Z,58
2022-10-30T20:20:24.113Z,66
2022-10-30T20:26:04.220Z,72
2022-10-30T20:31:47.165Z,60
2022-10-30T20:38:10.324Z,62
2022-10-30T20:43:50.814Z,74
2022-10-30T20:49:34.970Z,74
2022-10-30T20:55:24.204Z,70
2022-10-30T21:01:21.304Z,72
2022-10-30T21:07:02.526Z,58
2022-10-30T21:13:28.087Z,70
2022-10-30T21:19:12.029Z,64
2022-10-30T21:24:52.852Z,72
2022-10-30T21:30:41.251Z,70
2022-10-30T21:36:21.438Z,70
2022-10-30T21:42:02.637Z,60
2022-10-30T21:47:42.691Z,74
2022-10-30T21:53:22.654Z,64
2022-10-30T21:59:03.315Z,72
2022-10-30T22:04:43.405Z,76
2022-10-30T22:10:23.564Z,66
2022-10-30T22:16:03.914Z,72
2022-10-30T22:21:43.985Z,74
2022-10-30T22:27:24.287Z,64
2022-10-30T22:33:04.359Z,70
2022-10-30T22:38:44.195Z,72
2022-10-30T22:44:24.224Z,72
2022-10-30T22:50:07.405Z,66
2022-10-30T22:55:48.346Z,68
2022-10-30T23:01:28.861Z,72
2022-10-30T23:07:09.673Z,72
2022-10-30T23:12:49.624Z,58
2022-10-30T23:18:29.547Z,70
2022-10-30T23:24:09.469Z,70
2022-10-30T23:29:52.840Z,64
2022-10-30T23:35:32.890Z,72
2022-10-30T23:41:13.324Z,60
2022-10-30T23:46:54.304Z,60
2022-10-30T23:52:39.644Z,64
2022-10-30T23:58:25.588Z,64
